KAUG 160253Z AUTO 00000KT 9SM CLR 22/21 A2987 RMK AO2 SLP112 T02220211 50013